createdAt,value
2019-05-09T00:02:39.630Z,20.30
2019-05-09T00:05:46.186Z,20.30
2019-05-09T00:08:53.212Z,20.30
2019-05-09T00:11:58.726Z,20.30
2019-05-09T00:15:06.144Z,20.30
2019-05-09T00:18:14.269Z,20.30
2019-05-09T00:21:25.227Z,20.30
2019-05-09T00:24:33.056Z,20.20
2019-05-09T00:27:43.424Z,20.30
2019-05-09T00:30:58.542Z,20.30
2019-05-09T00:34:07.705Z,20.20
2019-05-09T00:37:13.577Z,20.20
2019-05-09T00:40:19.419Z,20.20
2019-05-09T00:43:25.972Z,20.20
2019-05-09T00:46:54.489Z,20.20
2019-05-09T00:50:00.138Z,20.20
2019-05-09T00:53:07.301Z,20.20
2019-05-09T00:56:14.620Z,20.20
2019-05-09T00:59:20.243Z,20.20
2019-05-09T01:02:27.490Z,20.20
2019-05-09T01:05:34.446Z,20.20
2019-05-09T01:08:41.124Z,20.20
2019-05-09T01:11:48.105Z,20.10
2019-05-09T01:14:53.953Z,20.10
2019-05-09T01:18:00.645Z,20.10
2019-05-09T01:21:07.977Z,20.10
2019-05-09T01:24:14.015Z,20.10
2019-05-09T01:27:19.756Z,20.10
2019-05-09T01:30:26.842Z,20.10
2019-05-09T01:33:53.403Z,20.10
2019-05-09T01:37:06.593Z,20.10
2019-05-09T01:40:13.232Z,20.10
2019-05-09T01:43:19.886Z,20.10
2019-05-09T01:46:26.959Z,20.10
2019-05-09T01:49:34.361Z,20.10
2019-05-09T01:52:40.998Z,20.10
2019-05-09T01:56:05.624Z,20.10
2019-05-09T01:59:13.719Z,20.00
2019-05-09T02:02:23.525Z,20.10
2019-05-09T02:05:31.289Z,20.00
2019-05-09T02:08:36.793Z,20.00
2019-05-09T02:11:45.353Z,20.00
2019-05-09T02:15:15.254Z,20.00
2019-05-09T02:18:30.687Z,20.10
2019-05-09T02:21:37.886Z,20.00
2019-05-09T02:24:44.098Z,20.00
2019-05-09T02:27:55.098Z,20.00
2019-05-09T02:31:00.124Z,20.00
2019-05-09T02:34:06.001Z,20.00
2019-05-09T02:37:12.471Z,20.00
2019-05-09T02:40:19.771Z,20.00
2019-05-09T02:43:29.208Z,20.00
2019-05-09T02:46:51.723Z,20.00
2019-05-09T02:50:00.771Z,19.90
2019-05-09T02:53:08.112Z,19.90
2019-05-09T02:56:19.019Z,19.90
2019-05-09T02:59:42.337Z,19.90
2019-05-09T03:02:54.963Z,19.90
2019-05-09T03:06:03.538Z,19.90
2019-05-09T03:09:09.291Z,19.90
2019-05-09T03:12:26.887Z,19.90
2019-05-09T03:15:23.189Z,19.90
2019-05-09T03:18:29.965Z,19.90
2019-05-09T03:21:42.498Z,19.90
2019-05-09T03:24:50.905Z,19.90
2019-05-09T03:28:03.518Z,19.90
2019-05-09T03:31:10.124Z,19.90
2019-05-09T03:34:19.258Z,19.90
2019-05-09T03:37:24.058Z,19.90
2019-05-09T03:40:31.283Z,19.90
2019-05-09T03:43:38.021Z,19.90
2019-05-09T03:46:51.261Z,19.80
2019-05-09T03:50:28.711Z,19.90
2019-05-09T03:53:35.311Z,19.80
2019-05-09T03:56:44.779Z,19.80
2019-05-09T03:59:51.446Z,19.80
2019-05-09T04:02:58.035Z,19.80
2019-05-09T04:06:03.959Z,19.80
2019-05-09T04:09:09.626Z,19.80
2019-05-09T04:12:15.297Z,19.80
2019-05-09T04:15:22.076Z,19.80
2019-05-09T04:18:29.062Z,19.80
2019-05-09T04:21:34.533Z,19.80
2019-05-09T04:24:40.163Z,19.80
2019-05-09T04:27:48.416Z,19.80
2019-05-09T04:30:54.030Z,19.80
2019-05-09T04:34:01.014Z,19.80
2019-05-09T04:37:12.079Z,19.80
2019-05-09T04:40:17.844Z,19.80
2019-05-09T04:43:34.297Z,19.80
2019-05-09T04:46:31.968Z,19.80
2019-05-09T04:49:41.128Z,19.80
2019-05-09T04:52:47.504Z,19.80
2019-05-09T04:55:54.795Z,19.80
2019-05-09T04:59:00.274Z,19.90
2019-05-09T05:02:31.406Z,19.90
2019-05-09T05:05:40.190Z,19.90
2019-05-09T05:08:47.878Z,19.90
2019-05-09T05:11:53.088Z,19.90
2019-05-09T05:14:58.557Z,19.90
2019-05-09T05:18:08.557Z,19.90
2019-05-09T05:21:15.165Z,20.00
2019-05-09T05:24:38.537Z,19.90
2019-05-09T05:27:44.056Z,20.00
2019-05-09T05:30:50.989Z,20.00
2019-05-09T05:34:22.206Z,20.00
2019-05-09T05:37:30.542Z,20.00
2019-05-09T05:40:45.308Z,20.00
2019-05-09T05:43:48.005Z,20.00
2019-05-09T05:47:21.327Z,20.00
2019-05-09T05:50:28.049Z,20.10
2019-05-09T05:53:35.474Z,20.10
2019-05-09T05:56:40.906Z,20.10
2019-05-09T05:59:48.214Z,20.10
2019-05-09T06:02:54.689Z,20.10
2019-05-09T06:06:02.988Z,20.10
2019-05-09T06:09:10.101Z,20.00
2019-05-09T06:12:19.178Z,20.10
2019-05-09T06:15:24.561Z,20.10
2019-05-09T06:18:31.887Z,20.10
2019-05-09T06:21:38.423Z,20.10
2019-05-09T06:24:44.905Z,20.10
2019-05-09T06:27:50.325Z,20.10
2019-05-09T06:30:58.522Z,20.10
2019-05-09T06:34:08.150Z,20.10
2019-05-09T06:37:14.394Z,20.10
2019-05-09T06:40:23.348Z,20.20
2019-05-09T06:43:34.378Z,20.20
2019-05-09T06:46:52.935Z,20.20
2019-05-09T06:50:07.791Z,20.10
2019-05-09T06:53:12.621Z,20.20
2019-05-09T06:56:18.060Z,20.20
2019-05-09T06:59:25.322Z,20.20
2019-05-09T07:02:42.282Z,20.10
2019-05-09T07:06:14.601Z,20.10
2019-05-09T07:09:38.313Z,20.20
2019-05-09T07:12:44.239Z,20.20
2019-05-09T07:15:50.462Z,20.10
2019-05-09T07:18:57.949Z,20.20
2019-05-09T07:22:18.453Z,20.20
2019-05-09T07:25:58.222Z,20.20
2019-05-09T07:29:07.308Z,20.20
2019-05-09T07:32:18.079Z,20.30
2019-05-09T07:35:24.163Z,20.30
2019-05-09T07:38:33.053Z,20.30
2019-05-09T07:41:42.099Z,20.30
2019-05-09T07:44:52.159Z,20.40
2019-05-09T07:47:58.388Z,20.40
2019-05-09T07:55:24.098Z,20.40
2019-05-09T07:58:31.302Z,20.30
2019-05-09T08:01:38.529Z,20.40
2019-05-09T08:04:44.006Z,20.40
2019-05-09T08:07:49.404Z,20.40
2019-05-09T08:10:58.452Z,20.40
2019-05-09T08:14:04.000Z,20.40
2019-05-09T08:17:10.935Z,20.40
2019-05-09T08:20:17.630Z,20.40
2019-05-09T08:23:23.237Z,20.40
2019-05-09T08:26:30.496Z,20.40
2019-05-09T08:29:38.522Z,20.40
2019-05-09T08:32:43.327Z,20.40
2019-05-09T08:35:52.694Z,20.40
2019-05-09T08:38:59.206Z,20.50
2019-05-09T08:42:08.449Z,20.40
2019-05-09T08:45:26.841Z,20.40
2019-05-09T08:48:20.481Z,20.50
2019-05-09T08:51:37.841Z,20.40
2019-05-09T08:54:58.015Z,20.50
2019-05-09T08:58:04.506Z,20.50
2019-05-09T09:01:11.568Z,20.50
2019-05-09T09:04:18.969Z,20.50
2019-05-09T09:07:24.211Z,20.40
2019-05-09T09:10:29.672Z,20.50
2019-05-09T09:13:37.798Z,20.40
2019-05-09T09:16:43.379Z,20.40
2019-05-09T09:19:50.111Z,20.30
2019-05-09T09:22:58.025Z,20.40
2019-05-09T09:26:03.746Z,20.40
2019-05-09T09:29:09.232Z,20.30
2019-05-09T09:32:14.639Z,20.40
2019-05-09T09:35:20.053Z,20.30
2019-05-09T09:38:28.109Z,20.30
2019-05-09T09:41:33.650Z,20.30
2019-05-09T09:44:39.612Z,20.30
2019-05-09T09:47:47.986Z,20.30
2019-05-09T09:50:57.826Z,20.30
2019-05-09T09:54:02.594Z,20.30
2019-05-09T09:57:09.685Z,20.30
2019-05-09T10:00:29.085Z,20.30
2019-05-09T10:03:35.082Z,20.30
2019-05-09T10:06:43.380Z,20.30
2019-05-09T10:09:49.986Z,20.30
2019-05-09T10:12:56.016Z,20.30
2019-05-09T10:16:25.515Z,20.30
2019-05-09T10:19:40.927Z,20.30
2019-05-09T10:22:59.935Z,20.30
2019-05-09T10:25:59.632Z,20.20
2019-05-09T10:29:05.231Z,20.20
2019-05-09T10:32:13.238Z,20.20
2019-05-09T10:35:24.054Z,20.20
2019-05-09T10:38:31.301Z,20.30
2019-05-09T10:41:37.814Z,20.30
2019-05-09T10:44:48.870Z,20.30
2019-05-09T10:47:53.933Z,20.30
2019-05-09T10:51:04.792Z,20.40
2019-05-09T10:54:08.415Z,20.40
2019-05-09T10:57:14.018Z,20.40
2019-05-09T11:00:20.953Z,20.50
2019-05-09T11:03:26.369Z,20.50
2019-05-09T11:06:32.946Z,20.50
2019-05-09T11:09:40.226Z,20.50
2019-05-09T11:12:47.889Z,20.50
2019-05-09T11:15:58.165Z,20.50
2019-05-09T11:19:03.377Z,20.50
2019-05-09T11:22:08.874Z,20.50
2019-05-09T11:25:14.549Z,20.50
2019-05-09T11:28:22.942Z,20.50
2019-05-09T11:31:29.884Z,20.50
2019-05-09T11:34:37.436Z,20.50
2019-05-09T11:37:42.498Z,20.50
2019-05-09T11:40:48.371Z,20.50
2019-05-09T11:43:55.003Z,20.50
2019-05-09T11:47:00.378Z,20.50
2019-05-09T11:50:08.877Z,20.60
2019-05-09T11:53:14.821Z,20.50
2019-05-09T11:56:22.022Z,20.50
2019-05-09T11:59:28.063Z,20.60
2019-05-09T12:02:34.817Z,20.60
2019-05-09T12:05:41.201Z,20.60
2019-05-09T12:08:48.567Z,20.60
2019-05-09T12:11:54.067Z,20.60
2019-05-09T12:14:59.504Z,20.60
2019-05-09T12:18:09.112Z,20.60
2019-05-09T12:21:13.287Z,20.70
2019-05-09T12:24:18.742Z,20.70
2019-05-09T12:27:24.218Z,20.60
2019-05-09T12:30:31.446Z,20.70
2019-05-09T12:33:36.811Z,20.60
2019-05-09T12:36:44.030Z,20.60
2019-05-09T12:39:50.574Z,20.60
2019-05-09T12:42:56.129Z,20.60
2019-05-09T12:46:01.484Z,20.60
2019-05-09T12:49:08.964Z,20.60
2019-05-09T12:52:13.874Z,20.60
2019-05-09T12:55:22.941Z,20.60
2019-05-09T12:58:29.080Z,20.60
2019-05-09T13:01:39.906Z,20.50
2019-05-09T13:04:42.971Z,20.60
2019-05-09T13:07:48.363Z,20.50
2019-05-09T13:10:53.930Z,20.60
2019-05-09T13:14:04.209Z,20.50
2019-05-09T13:17:27.477Z,20.60
2019-05-09T13:20:33.522Z,20.60
2019-05-09T13:23:39.362Z,20.50
2019-05-09T13:26:47.950Z,20.60
2019-05-09T13:29:54.811Z,20.60
2019-05-09T13:33:00.379Z,20.60
2019-05-09T13:36:09.259Z,20.50
2019-05-09T13:39:17.983Z,20.60
2019-05-09T13:42:23.075Z,20.60
2019-05-09T13:45:30.273Z,20.60
2019-05-09T13:48:57.420Z,20.50
2019-05-09T13:51:50.649Z,20.50
2019-05-09T13:54:52.650Z,20.50
2019-05-09T13:57:59.465Z,20.60
2019-05-09T14:01:07.781Z,20.50
2019-05-09T14:04:14.249Z,20.60
2019-05-09T14:07:20.321Z,20.60
2019-05-09T14:10:25.996Z,20.60
2019-05-09T14:13:31.512Z,20.60
2019-05-09T14:16:39.007Z,20.60
2019-05-09T14:19:46.875Z,20.60
2019-05-09T14:22:52.498Z,20.50
2019-05-09T14:25:59.001Z,20.50
2019-05-09T14:29:04.730Z,20.60
2019-05-09T14:32:10.566Z,20.50
2019-05-09T14:35:18.118Z,20.60
2019-05-09T14:38:26.232Z,20.60
2019-05-09T14:41:31.646Z,20.50
2019-05-09T14:44:38.310Z,20.50
2019-05-09T14:47:43.860Z,20.50
2019-05-09T14:50:49.660Z,20.50
2019-05-09T14:53:55.195Z,20.50
2019-05-09T14:57:02.681Z,20.50
2019-05-09T15:00:09.764Z,20.50
2019-05-09T15:03:15.278Z,20.50
2019-05-09T15:06:22.355Z,20.50
2019-05-09T15:09:29.603Z,20.60
2019-05-09T15:12:35.145Z,20.60
2019-05-09T15:15:40.647Z,20.60
2019-05-09T15:18:48.615Z,20.60
2019-05-09T15:21:57.833Z,20.60
2019-05-09T15:25:03.352Z,20.60
2019-05-09T15:28:08.911Z,20.60
2019-05-09T15:31:18.114Z,20.60
2019-05-09T15:34:23.058Z,20.60
2019-05-09T15:37:29.646Z,20.60
2019-05-09T15:40:38.661Z,20.60
2019-05-09T15:43:44.609Z,20.60
2019-05-09T15:46:55.676Z,20.60
2019-05-09T15:50:15.464Z,20.60
2019-05-09T15:53:08.527Z,20.60
2019-05-09T15:56:15.726Z,20.60
2019-05-09T15:59:21.167Z,20.60
2019-05-09T16:02:28.220Z,20.60
2019-05-09T16:05:38.529Z,20.60
2019-05-09T16:08:44.378Z,20.60
2019-05-09T16:11:51.675Z,20.60
2019-05-09T16:14:57.190Z,20.60
2019-05-09T16:18:02.614Z,20.60
2019-05-09T16:21:09.311Z,20.60
2019-05-09T16:24:18.525Z,20.60
2019-05-09T16:27:23.433Z,20.60
2019-05-09T16:30:30.719Z,20.60
2019-05-09T16:33:37.189Z,20.60
2019-05-09T16:36:42.587Z,20.60
2019-05-09T16:39:49.072Z,20.60
2019-05-09T16:42:54.476Z,20.60
2019-05-09T16:45:59.850Z,20.60
2019-05-09T16:49:05.322Z,20.60
2019-05-09T16:52:10.684Z,20.60
2019-05-09T16:55:30.641Z,20.60
2019-05-09T16:58:32.924Z,20.60
2019-05-09T17:01:40.698Z,20.60
2019-05-09T17:04:46.113Z,20.60
2019-05-09T17:07:52.365Z,20.70
2019-05-09T17:10:58.641Z,20.60
2019-05-09T17:14:08.028Z,20.70
2019-05-09T17:17:13.633Z,20.60
2019-05-09T17:20:23.318Z,20.70
2019-05-09T17:23:29.540Z,20.70
2019-05-09T17:26:37.902Z,20.60
2019-05-09T17:29:44.250Z,20.60
2019-05-09T17:32:49.695Z,20.70
2019-05-09T17:35:57.570Z,20.70
2019-05-09T17:39:02.109Z,20.70
2019-05-09T17:42:11.010Z,20.60
2019-05-09T17:45:16.701Z,20.60
2019-05-09T17:48:23.249Z,20.60
2019-05-09T17:51:34.049Z,20.60
2019-05-09T17:54:39.262Z,20.60
2019-05-09T17:57:47.926Z,20.60
2019-05-09T18:00:54.594Z,20.60
2019-05-09T18:04:00.012Z,20.60
2019-05-09T18:07:05.440Z,20.60
2019-05-09T18:10:13.729Z,20.70
2019-05-09T18:13:23.966Z,20.60
2019-05-09T18:16:28.453Z,20.60
2019-05-09T18:19:34.158Z,20.70
2019-05-09T18:22:39.537Z,20.70
2019-05-09T18:25:45.987Z,20.70
2019-05-09T18:28:51.364Z,20.70
2019-05-09T18:32:27.408Z,20.70
2019-05-09T18:35:33.960Z,20.70
2019-05-09T18:38:39.422Z,20.60
2019-05-09T18:41:44.801Z,20.70
2019-05-09T18:44:53.189Z,20.60
2019-05-09T18:47:58.614Z,20.70
2019-05-09T18:51:05.826Z,20.70
2019-05-09T18:54:11.312Z,20.70
2019-05-09T18:57:16.754Z,20.70
2019-05-09T19:00:22.799Z,20.70
2019-05-09T19:03:28.522Z,20.80
2019-05-09T19:06:35.275Z,20.70
2019-05-09T19:09:40.721Z,20.80
2019-05-09T19:12:46.154Z,20.80
2019-05-09T19:16:00.117Z,20.80
2019-05-09T19:19:15.681Z,20.80
2019-05-09T19:22:22.868Z,20.80
2019-05-09T19:25:28.498Z,20.80
2019-05-09T19:28:34.275Z,20.80
2019-05-09T19:31:41.211Z,20.80
2019-05-09T19:34:46.619Z,20.80
2019-05-09T19:37:53.505Z,20.80
2019-05-09T19:40:58.938Z,20.80
2019-05-09T19:44:04.544Z,20.80
2019-05-09T19:47:09.987Z,20.80
2019-05-09T19:50:16.843Z,20.80
2019-05-09T19:53:22.241Z,20.80
2019-05-09T19:56:28.063Z,20.80
2019-05-09T19:59:33.551Z,20.80
2019-05-09T20:02:40.502Z,20.80
2019-05-09T20:05:46.046Z,20.80
2019-05-09T20:08:51.654Z,20.80
2019-05-09T20:12:17.206Z,20.80
2019-05-09T20:15:23.158Z,20.80
2019-05-09T20:18:30.137Z,20.80
2019-05-09T20:21:37.541Z,20.80
2019-05-09T20:24:45.365Z,20.80
2019-05-09T20:27:50.984Z,20.80
2019-05-09T20:30:56.672Z,20.80
2019-05-09T20:34:02.243Z,20.80
2019-05-09T20:37:07.876Z,20.80
2019-05-09T20:40:17.228Z,20.80
2019-05-09T20:43:24.375Z,20.70
2019-05-09T20:46:30.264Z,20.70
2019-05-09T20:49:37.934Z,20.70
2019-05-09T20:52:43.721Z,20.70
2019-05-09T20:55:51.241Z,20.70
2019-05-09T20:58:57.179Z,20.70
2019-05-09T21:02:03.046Z,20.60
2019-05-09T21:05:09.436Z,20.60
2019-05-09T21:08:15.267Z,20.60
2019-05-09T21:11:21.194Z,20.60
2019-05-09T21:14:28.793Z,20.60
2019-05-09T21:17:35.605Z,20.60
2019-05-09T21:25:56.142Z,20.60
2019-05-09T21:30:23.587Z,20.50
2019-05-09T21:37:25.749Z,20.40
2019-05-09T21:40:31.336Z,20.40
2019-05-09T21:43:37.121Z,20.40
2019-05-09T21:46:44.146Z,20.40
2019-05-09T21:49:49.760Z,20.40
2019-05-09T21:52:55.310Z,20.40
2019-05-09T21:56:07.430Z,20.40
2019-05-09T21:59:14.767Z,20.40
2019-05-09T22:02:38.589Z,20.40
2019-05-09T22:05:44.360Z,20.40
2019-05-09T22:08:49.898Z,20.40
2019-05-09T22:11:55.450Z,20.50
2019-05-09T22:15:03.863Z,20.50
2019-05-09T22:18:08.292Z,20.50
2019-05-09T22:21:23.134Z,20.50
2019-05-09T22:26:57.907Z,20.50
2019-05-09T22:28:34.268Z,20.50
2019-05-09T22:31:39.894Z,20.50
2019-05-09T22:34:45.542Z,20.50
2019-05-09T22:37:52.843Z,20.40
2019-05-09T22:41:02.615Z,20.50
2019-05-09T22:44:08.172Z,20.50
2019-05-09T22:47:14.741Z,20.50
2019-05-09T22:50:22.443Z,20.40
2019-05-09T22:53:28.304Z,20.50
2019-05-09T22:56:33.855Z,20.50
2019-05-09T23:04:15.274Z,20.50
2019-05-09T23:07:22.768Z,20.40
2019-05-09T23:10:28.321Z,20.40
2019-05-09T23:13:54.950Z,20.40
2019-05-09T23:17:00.894Z,20.40
2019-05-09T23:20:16.716Z,20.40
2019-05-09T23:23:47.366Z,20.40
2019-05-09T23:26:53.262Z,20.40
2019-05-09T23:29:59.101Z,20.40
2019-05-09T23:33:06.262Z,20.40
2019-05-09T23:36:13.760Z,20.40
2019-05-09T23:39:25.256Z,20.30
2019-05-09T23:42:32.246Z,20.30
2019-05-09T23:45:39.907Z,20.40
2019-05-09T23:48:45.770Z,20.40
2019-05-09T23:51:51.645Z,20.40
2019-05-09T23:55:15.841Z,20.40
2019-05-09T23:58:39.961Z,20.40
